Time;durP1;ratioP1;P1;durP2;ratioP2;P2;SDS_P1;SDS_P2;PMS_P1;PMS_P2;Temp;Humidity;BMP_temperature;BMP_pressure;BME280_temperature;BME280_humidity;BME280_pressure;Samples;Min_cycle;Max_cycle;Signal;HPM_P1;HPM_P2
2022/03/12 00:01:58;;;;;;;12.80;6.15;;;;;;;13.74;28.65;101269.19;4993820;28;114070;-62
2022/03/12 00:04:26;;;;;;;11.77;6.20;;;;;;;13.74;28.86;101269.19;4995277;28;122974;-62
2022/03/12 00:06:53;;;;;;;9.82;6.00;;;;;;;13.74;28.76;101270.03;4994805;28;124619;-62
2022/03/12 00:09:21;;;;;;;8.98;5.22;;;;;;;13.75;28.83;101274.44;4994348;28;114350;-62
2022/03/12 00:11:51;;;;;;;11.43;6.30;;;;;;;13.74;28.68;101275.34;4993646;28;113950;-62
2022/03/12 00:14:21;;;;;;;11.02;6.00;;;;;;;13.74;28.85;101264.72;4994342;28;123248;-62
2022/03/12 00:16:49;;;;;;;10.75;6.00;;;;;;;13.73;28.88;101264.78;4994791;28;122919;-62
2022/03/12 00:19:21;;;;;;;12.07;6.20;;;;;;;13.72;28.74;101261.28;4994126;28;114655;-62
2022/03/12 00:21:49;;;;;;;10.90;6.32;;;;;;;13.72;28.77;101266.59;4994846;28;114100;-61
2022/03/12 00:24:17;;;;;;;14.13;5.95;;;;;;;13.72;28.64;101271.91;4994943;28;123306;-62
2022/03/12 00:26:46;;;;;;;11.45;6.28;;;;;;;13.71;28.87;101270.22;4993480;28;123750;-62
2022/03/12 00:29:15;;;;;;;11.00;6.43;;;;;;;13.71;29.01;101275.53;4993810;28;114397;-62
2022/03/12 00:31:44;;;;;;;10.77;6.15;;;;;;;13.70;28.87;101268.47;4995008;28;113184;-62
2022/03/12 00:34:13;;;;;;;12.52;6.32;;;;;;;13.70;28.90;101279.13;4996337;28;124450;-62
2022/03/12 00:36:41;;;;;;;14.05;6.32;;;;;;;13.69;28.72;101281.84;4993667;28;124710;-62
2022/03/12 00:39:10;;;;;;;11.73;6.18;;;;;;;13.70;28.91;101279.13;4993359;28;115729;-62
2022/03/12 00:41:42;;;;;;;12.18;6.07;;;;;;;13.70;28.77;101284.44;4995782;28;115257;-62
2022/03/12 00:44:17;;;;;;;10.57;5.88;;;;;;;13.68;28.86;101286.34;4996275;28;124423;-62
2022/03/12 00:46:45;;;;;;;15.23;6.70;;;;;;;13.69;28.99;101285.38;4989687;28;123659;-62
2022/03/12 00:49:12;;;;;;;13.35;5.90;;;;;;;13.69;28.84;101293.34;4992201;28;114280;-62
2022/03/12 00:51:40;;;;;;;12.07;5.75;;;;;;;13.69;28.96;101293.34;4992112;28;114358;-62
2022/03/12 00:54:07;;;;;;;12.70;6.20;;;;;;;13.70;28.99;101288.91;4991297;28;124283;-62
2022/03/12 00:56:35;;;;;;;13.80;6.47;;;;;;;13.70;28.96;101295.09;4990365;28;124514;-62
2022/03/12 00:59:02;;;;;;;12.55;6.20;;;;;;;13.71;28.96;101286.19;4991082;28;114440;-61
2022/03/12 01:01:29;;;;;;;11.60;6.40;;;;;;;13.72;28.88;101292.38;4989921;28;114296;-62
2022/03/12 01:03:58;;;;;;;12.98;6.25;;;;;;;13.73;28.78;101294.94;4991728;28;124759;-62
2022/03/12 01:06:25;;;;;;;13.52;6.40;;;;;;;13.74;28.89;101295.81;4989749;28;123758;-62
2022/03/12 01:08:52;;;;;;;15.32;6.28;;;;;;;13.75;29.11;101294.84;4992612;28;114669;-61
2022/03/12 01:11:20;;;;;;;12.27;5.72;;;;;;;13.77;29.07;101291.19;4991048;28;113160;-61
2022/03/12 01:13:47;;;;;;;11.32;5.82;;;;;;;13.79;28.94;101305.28;4991852;28;124265;-61
2022/03/12 01:16:14;;;;;;;12.07;5.85;;;;;;;13.79;28.82;101294.63;4991274;28;123952;-62
2022/03/12 01:18:42;;;;;;;15.57;6.20;;;;;;;13.81;28.96;101298.06;4989937;28;114432;-61
2022/03/12 01:21:16;;;;;;;12.93;6.18;;;;;;;13.83;28.77;101301.50;4992468;28;114538;-62
2022/03/12 01:23:47;;;;;;;11.10;5.65;;;;;;;13.85;28.72;101297.94;4991798;28;124138;-62
2022/03/12 01:26:16;;;;;;;15.77;6.18;;;;;;;13.85;28.84;101301.44;4989770;28;124286;-62
2022/03/12 01:28:44;;;;;;;13.05;5.75;;;;;;;13.87;28.94;101301.38;4989187;28;115525;-62
2022/03/12 01:31:12;;;;;;;12.18;5.82;;;;;;;13.88;28.94;101297.75;4991650;28;114845;-62
2022/03/12 01:33:39;;;;;;;12.30;6.32;;;;;;;13.89;28.91;101313.66;4991961;28;124125;-62
2022/03/12 01:36:07;;;;;;;13.00;6.30;;;;;;;13.90;28.84;101306.50;4989537;28;123855;-62
2022/03/12 01:38:53;;;;;;;12.98;5.80;;;;;;;13.91;28.77;101308.25;4989703;28;114625;-62
2022/03/12 01:41:30;;;;;;;10.57;6.20;;;;;;;13.92;28.83;101304.63;4989989;28;114153;-62
2022/03/12 01:43:59;;;;;;;11.40;6.15;;;;;;;13.93;28.85;101311.69;4991381;28;124880;-62
2022/03/12 01:46:31;;;;;;;13.77;6.40;;;;;;;13.93;28.94;101311.69;4992248;28;124325;-62
2022/03/12 01:48:59;;;;;;;16.77;6.03;;;;;;;13.93;28.95;101311.69;4989003;28;114266;-62
2022/03/12 01:51:27;;;;;;;16.25;6.15;;;;;;;13.93;28.83;101317.03;4989169;28;114408;-62
2022/03/12 01:53:54;;;;;;;13.18;5.95;;;;;;;13.93;28.95;101317.03;4989797;28;123155;-62
2022/03/12 01:56:27;;;;;;;13.02;6.13;;;;;;;13.91;29.02;101321.56;4988854;28;123835;-62
2022/03/12 01:58:55;;;;;;;9.40;5.88;;;;;;;13.91;29.00;101324.22;4991417;28;114854;-62
2022/03/12 02:01:22;;;;;;;12.82;5.97;;;;;;;13.89;28.93;101326.13;5006749;28;112959;-62
2022/03/12 02:03:50;;;;;;;10.73;5.93;;;;;;;13.88;29.00;101335.03;4989848;28;124132;-62
2022/03/12 02:06:19;;;;;;;11.95;5.95;;;;;;;13.88;29.17;101324.38;4990628;28;123786;-62
2022/03/12 02:08:48;;;;;;;15.85;6.20;;;;;;;13.87;29.18;101325.34;4989217;28;114313;-62
2022/03/12 02:11:25;;;;;;;11.05;5.85;;;;;;;13.86;29.22;101328.91;4990645;28;112982;-62
2022/03/12 02:14:17;;;;;;;12.07;5.88;;;;;;;13.85;29.15;101329.88;4991195;28;124130;-62
2022/03/12 02:16:51;;;;;;;12.82;6.30;;;;;;;13.83;29.05;101324.63;4990003;28;122781;-62
2022/03/12 02:19:20;;;;;;;12.00;5.78;;;;;;;13.81;29.38;101324.69;4991074;28;115513;-62
2022/03/12 02:22:00;;;;;;;12.43;6.57;;;;;;;13.79;29.43;101326.56;4989939;28;114915;-63
2022/03/12 02:24:30;;;;;;;14.00;5.88;;;;;;;13.77;29.27;101328.47;4988901;28;123936;-63
2022/03/12 02:27:00;;;;;;;11.73;6.35;;;;;;;13.77;29.28;101316.97;4988752;28;123983;-63
2022/03/12 02:29:27;;;;;;;11.85;5.90;;;;;;;13.74;29.31;101323.28;4990827;28;114217;-62
2022/03/12 02:31:57;;;;;;;12.77;6.57;;;;;;;13.74;29.44;101323.28;4990811;28;114104;-61
2022/03/12 02:34:35;;;;;;;11.48;6.20;;;;;;;13.72;29.50;101319.84;4989734;28;123742;-62
2022/03/12 02:37:03;;;;;;;13.95;6.45;;;;;;;13.72;29.44;101321.66;4989816;28;124087;-62
2022/03/12 02:39:30;;;;;;;12.77;6.53;;;;;;;13.71;29.63;101328.78;4988737;28;114133;-62
2022/03/12 02:42:00;;;;;;;11.25;6.13;;;;;;;13.69;29.80;101325.31;4989745;28;113692;-62
2022/03/12 02:44:28;;;;;;;11.20;6.22;;;;;;;13.69;29.53;101322.63;4990608;28;124681;-62
2022/03/12 02:47:24;;;;;;;11.52;6.47;;;;;;;13.67;29.62;101326.31;4988516;28;124269;-62
2022/03/12 02:50:03;;;;;;;12.07;6.60;;;;;;;13.66;29.68;101325.47;4991164;28;113458;-61
2022/03/12 02:52:31;;;;;;;13.95;6.72;;;;;;;13.65;29.68;101323.75;4990255;28;112918;-62
2022/03/12 02:55:00;;;;;;;12.07;6.50;;;;;;;13.66;29.75;101324.63;4990823;28;124667;-62
2022/03/12 02:57:28;;;;;;;12.85;6.43;;;;;;;13.63;29.59;101330.94;4988141;28;124381;-61
2022/03/12 03:00:03;;;;;;;11.80;6.32;;;;;;;13.62;29.59;101329.22;4980511;28;114226;-61
2022/03/12 03:02:33;;;;;;;13.48;6.30;;;;;;;13.61;29.63;101322.19;4962902;28;113480;-61
2022/03/12 03:05:00;;;;;;;10.93;5.97;;;;;;;13.60;29.86;101331.13;4988846;28;124718;-62
2022/03/12 03:07:29;;;;;;;11.40;6.25;;;;;;;13.60;29.77;101325.78;4990657;28;123875;-62
2022/03/12 03:09:56;;;;;;;11.75;6.45;;;;;;;13.59;29.62;101324.06;4988448;28;114060;-61
2022/03/12 03:12:23;;;;;;;12.77;6.07;;;;;;;13.59;29.98;101340.03;4988510;28;115588;-62
2022/03/12 03:14:51;;;;;;;12.07;6.40;;;;;;;13.59;29.88;101340.03;4989505;28;124673;-62
2022/03/12 03:17:18;;;;;;;11.77;6.43;;;;;;;13.58;29.98;101338.28;4989678;28;123175;-62
2022/03/12 03:19:46;;;;;;;10.90;6.20;;;;;;;13.56;30.14;101334.84;4987668;28;114547;-62
2022/03/12 03:22:13;;;;;;;11.07;6.38;;;;;;;13.58;30.00;101348.94;4990511;28;113975;-62
2022/03/12 03:24:40;;;;;;;8.85;6.03;;;;;;;13.57;30.11;101355.22;4988485;28;124528;-62
2022/03/12 03:27:09;;;;;;;12.05;6.53;;;;;;;13.57;30.19;101353.41;4988139;28;124043;-62
2022/03/12 03:29:37;;;;;;;15.55;6.68;;;;;;;13.57;30.21;101357.88;4989393;28;114505;-62
2022/03/12 03:32:05;;;;;;;12.88;6.75;;;;;;;13.58;30.00;101348.94;4988410;28;113613;-62
2022/03/12 03:34:33;;;;;;;10.77;6.35;;;;;;;13.55;30.42;101349.97;4987125;28;124493;-62
2022/03/12 03:37:00;;;;;;;12.18;6.80;;;;;;;13.56;30.09;101351.69;4987525;28;124041;-62
2022/03/12 03:39:27;;;;;;;11.70;6.32;;;;;;;13.55;30.56;101359.75;4988014;28;114341;-62
2022/03/12 03:41:54;;;;;;;11.85;6.28;;;;;;;13.54;30.28;101352.69;4988985;28;113843;-61
2022/03/12 03:44:27;;;;;;;12.65;6.28;;;;;;;13.53;30.78;101357.16;4990508;28;124754;-61
2022/03/12 03:46:56;;;;;;;12.10;6.50;;;;;;;13.53;30.57;101364.28;4987721;28;124550;-62
2022/03/12 03:49:24;;;;;;;12.77;6.65;;;;;;;13.51;30.73;101358.19;4978879;28;114745;-61
2022/03/12 03:51:52;;;;;;;12.88;6.43;;;;;;;13.50;30.64;101359.09;4948778;28;113937;-62
2022/03/12 03:54:20;;;;;;;11.73;6.28;;;;;;;13.49;30.93;101365.38;4951031;28;123935;-62
2022/03/12 03:56:47;;;;;;;11.15;6.07;;;;;;;13.48;30.81;101379.59;4951943;28;124175;-62
2022/03/12 03:59:14;;;;;;;12.88;6.55;;;;;;;13.46;30.94;101382.34;4950028;28;115550;-62
2022/03/12 04:01:42;;;;;;;11.55;6.57;;;;;;;13.44;31.18;101379.75;4965770;28;113828;-62
2022/03/12 04:04:12;;;;;;;10.85;6.18;;;;;;;13.43;31.14;101378.03;4949060;28;124783;-62
2022/03/12 04:06:40;;;;;;;12.43;6.72;;;;;;;13.42;31.14;101384.28;4948100;28;124061;-62
2022/03/12 04:09:07;;;;;;;11.75;6.82;;;;;;;13.41;31.29;101385.22;4947141;28;114545;-62
2022/03/12 04:11:34;;;;;;;10.50;6.82;;;;;;;13.39;31.33;101381.78;4962882;28;113851;-63
2022/03/12 04:14:05;;;;;;;11.07;6.80;;;;;;;13.38;31.61;101384.53;4950437;28;124453;-62
2022/03/12 04:16:33;;;;;;;11.05;6.75;;;;;;;13.35;31.45;101385.50;4951218;28;124932;-62
2022/03/12 04:19:06;;;;;;;12.65;6.75;;;;;;;13.31;31.46;101378.63;4963083;28;114016;-62
2022/03/12 04:21:34;;;;;;;15.25;7.18;;;;;;;13.29;31.64;101391.09;4950996;28;115054;-62
2022/03/12 04:24:01;;;;;;;11.00;6.10;;;;;;;13.25;31.77;101394.84;4953529;28;123861;-62
2022/03/12 04:26:30;;;;;;;11.68;6.65;;;;;;;13.21;31.66;101387.94;4953594;28;123942;-62
2022/03/12 04:28:58;;;;;;;14.00;7.00;;;;;;;13.16;31.84;101392.63;4969088;28;114054;-62
2022/03/12 04:31:25;;;;;;;11.45;6.05;;;;;;;13.12;31.90;101399.00;4951109;28;113979;-63
2022/03/12 04:33:52;;;;;;;11.48;6.43;;;;;;;13.08;32.00;101402.75;4953133;28;124869;-62
2022/03/12 04:36:19;;;;;;;12.30;6.35;;;;;;;12.99;31.97;101404.88;4951066;28;124374;-62
2022/03/12 04:38:48;;;;;;;11.80;6.60;;;;;;;12.95;31.99;101408.63;4953588;28;114212;-62
2022/03/12 04:41:17;;;;;;;14.65;6.95;;;;;;;12.90;32.22;101400.00;4952021;28;114982;-62
2022/03/12 04:43:45;;;;;;;11.27;6.35;;;;;;;12.85;32.08;101402.03;4952849;28;123830;-62
2022/03/12 04:46:12;;;;;;;12.15;6.60;;;;;;;12.80;32.26;101402.22;4952034;28;123684;-62
2022/03/12 04:48:40;;;;;;;12.82;6.97;;;;;;;12.76;32.43;101408.59;4950793;28;115598;-62
2022/03/12 04:51:07;;;;;;;9.88;6.53;;;;;;;12.72;32.45;101411.50;4952437;28;114800;-62
2022/03/12 04:53:36;;;;;;;12.90;6.80;;;;;;;12.66;32.40;101407.31;4952895;28;124174;-62
2022/03/12 04:56:03;;;;;;;13.57;6.55;;;;;;;12.61;32.60;101418.13;4950428;28;123991;-62
2022/03/12 04:58:30;;;;;;;11.73;6.95;;;;;;;12.56;32.51;101408.63;4950850;28;114319;-62
2022/03/12 05:00:57;;;;;;;12.98;6.90;;;;;;;12.50;32.54;101401.78;4951449;28;114288;-62
2022/03/12 05:03:25;;;;;;;12.27;6.68;;;;;;;12.46;32.63;101416.16;4952392;28;124822;-62
2022/03/12 05:05:54;;;;;;;13.48;6.38;;;;;;;12.42;32.94;101419.88;4953073;28;124716;-62
2022/03/12 05:08:33;;;;;;;11.88;6.95;;;;;;;12.38;32.99;101428.91;4953543;28;114919;-62
2022/03/12 05:11:00;;;;;;;12.07;6.85;;;;;;;12.33;33.04;101422.94;4965902;28;114041;-62
2022/03/12 05:13:29;;;;;;;12.07;6.78;;;;;;;12.27;33.00;101427.56;4952985;28;123757;-62
2022/03/12 05:16:01;;;;;;;13.02;6.15;;;;;;;12.23;33.22;101433.94;4950236;28;124437;-61
2022/03/12 05:18:30;;;;;;;10.75;6.57;;;;;;;12.18;33.44;101433.25;4952941;28;114530;-62
2022/03/12 05:20:58;;;;;;;13.48;6.80;;;;;;;12.15;33.39;101435.19;4949789;28;114473;-62
2022/03/12 05:23:26;;;;;;;12.52;6.80;;;;;;;12.10;33.23;101432.75;4968453;28;123517;-62
2022/03/12 05:25:54;;;;;;;11.73;6.65;;;;;;;12.09;33.42;101433.66;4951269;28;124050;-62
2022/03/12 05:28:31;;;;;;;10.65;6.00;;;;;;;12.05;33.52;101432.06;4952273;28;114268;-61
2022/03/12 05:31:04;;;;;;;13.25;6.60;;;;;;;12.02;33.95;101434.88;4950090;28;114416;-61
2022/03/12 05:33:33;;;;;;;12.05;6.57;;;;;;;11.99;33.98;101434.97;4952408;28;124144;-61
2022/03/12 05:36:02;;;;;;;10.32;6.07;;;;;;;11.96;33.89;101443.06;4949839;28;124689;-62
2022/03/12 05:38:32;;;;;;;11.18;6.18;;;;;;;11.94;33.79;101450.22;4965924;28;115167;-61
2022/03/12 05:41:00;;;;;;;11.93;6.25;;;;;;;11.91;34.23;101450.38;4950069;28;115415;-61
2022/03/12 05:43:31;;;;;;;13.50;6.35;;;;;;;11.88;34.21;101454.84;4951666;28;123921;-62
2022/03/12 05:46:00;;;;;;;13.60;6.40;;;;;;;11.86;34.30;101448.69;4967414;28;123746;-61
2022/03/12 05:48:28;;;;;;;10.73;6.18;;;;;;;11.83;34.33;101448.84;4950865;28;114441;-61
2022/03/12 05:50:56;;;;;;;12.35;6.55;;;;;;;11.81;34.71;101456.00;4949480;28;114073;-62
2022/03/12 05:53:24;;;;;;;13.10;6.45;;;;;;;11.80;34.76;101456.06;4950941;28;124835;-62
2022/03/12 05:55:51;;;;;;;11.98;6.30;;;;;;;11.77;34.58;101454.41;4951849;28;125578;-62
2022/03/12 05:58:19;;;;;;;11.63;6.55;;;;;;;11.74;34.95;101454.53;4949913;28;114595;-61
2022/03/12 06:00:54;;;;;;;12.73;6.05;;;;;;;11.72;34.95;101456.38;4948898;28;114180;-61
2022/03/12 06:03:24;;;;;;;11.90;6.45;;;;;;;11.70;35.01;101455.56;4951395;28;124298;-62
2022/03/12 06:05:56;;;;;;;12.80;6.28;;;;;;;11.68;35.19;101470.69;4950214;28;123917;-60
2022/03/12 06:08:26;;;;;;;11.90;7.00;;;;;;;11.66;35.34;101467.25;4967571;28;114307;-60
2022/03/12 06:10:55;;;;;;;12.70;6.28;;;;;;;11.65;35.28;101476.13;4949844;28;114594;-60
2022/03/12 06:13:28;;;;;;;13.90;6.60;;;;;;;11.63;35.47;101477.97;4951847;28;123868;-60
2022/03/12 06:16:00;;;;;;;12.10;6.38;;;;;;;11.62;35.42;101481.53;4951196;28;123893;-60
2022/03/12 06:18:32;;;;;;;11.68;6.43;;;;;;;11.62;35.69;101484.19;4951769;28;114443;-60
2022/03/12 06:21:00;;;;;;;11.50;6.47;;;;;;;11.61;35.70;101479.81;4950103;28;114730;-61
2022/03/12 06:23:28;;;;;;;10.82;6.20;;;;;;;11.59;35.52;101482.53;4951243;28;124099;-62
2022/03/12 06:25:55;;;;;;;11.90;5.97;;;;;;;11.58;36.01;101480.78;4949676;28;123952;-60
2022/03/12 06:28:27;;;;;;;11.63;5.82;;;;;;;11.58;35.79;101485.22;4950816;28;115596;-61
2022/03/12 06:31:00;;;;;;;10.65;5.60;;;;;;;11.60;36.13;101488.69;4953675;28;114908;-63
2022/03/12 06:33:34;;;;;;;10.40;6.00;;;;;;;11.61;36.23;101485.13;4951095;28;123560;-62
2022/03/12 06:36:02;;;;;;;11.70;6.20;;;;;;;11.61;36.46;101485.13;4949693;28;124378;-62
2022/03/12 06:38:30;;;;;;;11.55;6.40;;;;;;;11.63;36.42;101493.88;4950223;28;114295;-62
2022/03/12 06:40:58;;;;;;;10.25;5.93;;;;;;;11.64;36.34;101490.28;4950590;28;114454;-62
2022/03/12 06:43:28;;;;;;;10.18;5.57;;;;;;;11.66;36.50;101504.41;4950516;28;124692;-62
2022/03/12 06:46:01;;;;;;;11.55;6.07;;;;;;;11.67;36.53;101500.78;4967891;28;122608;-59
2022/03/12 06:48:30;;;;;;;10.85;5.68;;;;;;;11.71;36.69;101510.34;4949922;28;114118;-62
2022/03/12 06:50:58;;;;;;;12.15;6.22;;;;;;;11.74;36.94;101512.91;4949441;28;114565;-62
2022/03/12 06:53:25;;;;;;;11.23;5.78;;;;;;;11.78;37.00;101514.50;4950643;28;123796;-62
2022/03/12 06:55:53;;;;;;;11.13;5.75;;;;;;;11.79;37.06;101505.63;4950897;28;123765;-62
2022/03/12 06:58:22;;;;;;;9.75;5.53;;;;;;;11.82;37.42;101500.19;4951808;28;114148;-63
2022/03/12 07:00:49;;;;;;;8.57;5.47;;;;;;;11.87;37.39;101497.38;4952409;28;113422;-63
2022/03/12 07:03:16;;;;;;;11.15;5.53;;;;;;;11.92;37.30;101505.16;4950648;28;124119;-63
2022/03/12 07:05:43;;;;;;;10.13;5.30;;;;;;;11.95;37.54;101502.41;4949142;28;123710;-63
2022/03/12 07:08:11;;;;;;;10.40;5.93;;;;;;;12.00;37.58;101503.09;4950879;28;114077;-62
2022/03/12 07:10:38;;;;;;;10.50;5.43;;;;;;;12.04;37.71;101505.53;4951856;28;114645;-62
2022/03/12 07:13:06;;;;;;;13.52;6.13;;;;;;;12.09;37.63;101508.00;4950153;28;123829;-62
2022/03/12 07:15:33;;;;;;;10.38;5.93;;;;;;;12.14;37.83;101515.78;4951524;28;124236;-62
2022/03/12 07:18:00;;;;;;;11.55;5.60;;;;;;;12.19;37.75;101514.69;4967329;28;114894;-62
2022/03/12 07:20:28;;;;;;;10.98;5.65;;;;;;;12.24;37.75;101518.00;4948623;28;115179;-62
2022/03/12 07:22:55;;;;;;;10.07;5.57;;;;;;;12.31;38.30;101517.75;4949702;28;124854;-62
2022/03/12 07:25:25;;;;;;;10.73;5.88;;;;;;;12.37;38.24;101517.50;4949044;28;124538;-62
2022/03/12 07:27:53;;;;;;;9.23;5.68;;;;;;;12.44;38.36;101526.94;4951689;28;114110;-62
2022/03/12 07:30:21;;;;;;;11.43;5.60;;;;;;;12.49;38.42;101522.31;4948544;28;114047;-62
2022/03/12 07:32:49;;;;;;;10.80;5.80;;;;;;;12.56;38.44;101523.75;4949461;28;124853;-62
2022/03/12 07:35:18;;;;;;;10.95;5.68;;;;;;;12.63;38.48;101524.38;4949142;28;123688;-61
2022/03/12 07:37:49;;;;;;;10.18;6.20;;;;;;;12.69;38.71;101528.56;4949222;28;114312;-61
2022/03/12 07:40:17;;;;;;;8.50;5.10;;;;;;;12.77;38.80;101526.41;4951370;28;114029;-61
2022/03/12 07:42:44;;;;;;;8.95;5.47;;;;;;;12.84;38.87;101533.19;4950280;28;124174;-61
2022/03/12 07:45:15;;;;;;;8.38;5.40;;;;;;;12.92;38.91;101541.72;4948934;28;124118;-63
2022/03/12 07:47:43;;;;;;;11.73;5.65;;;;;;;13.00;39.16;101534.25;4949084;28;114653;-62
2022/03/12 07:50:13;;;;;;;11.27;5.75;;;;;;;13.08;39.20;101535.72;4965043;28;113901;-62
2022/03/12 07:52:41;;;;;;;9.32;5.35;;;;;;;13.15;39.30;101537.19;4950975;28;124393;-62
2022/03/12 07:55:11;;;;;;;11.05;5.32;;;;;;;13.21;39.51;101547.53;4952848;28;125676;-61
2022/03/12 07:57:39;;;;;;;10.82;5.82;;;;;;;13.27;39.45;101555.25;4952749;28;114712;-61
2022/03/12 08:00:11;;;;;;;9.23;5.45;;;;;;;13.34;39.59;101548.75;4952154;28;114385;-62
2022/03/12 08:02:48;;;;;;;7.93;5.17;;;;;;;13.42;39.75;101557.25;4954944;28;124490;-61
2022/03/12 08:05:21;;;;;;;11.20;5.05;;;;;;;13.52;39.48;101570.13;4966826;28;124105;-61
2022/03/12 08:07:49;;;;;;;9.57;5.28;;;;;;;13.58;39.65;101572.50;4951589;28;115252;-62
2022/03/12 08:10:17;;;;;;;9.20;5.28;;;;;;;13.63;39.69;101575.81;4951433;28;115028;-61
2022/03/12 08:12:45;;;;;;;9.90;4.97;;;;;;;13.68;39.75;101579.16;4952732;28;123905;-61
2022/03/12 08:15:12;;;;;;;9.73;5.43;;;;;;;13.73;39.90;101582.47;4953629;28;124339;-61
2022/03/12 08:17:43;;;;;;;11.55;5.53;;;;;;;13.79;39.93;101587.50;4952072;28;114500;-61
2022/03/12 08:20:11;;;;;;;10.48;5.53;;;;;;;13.85;39.79;101580.16;4951452;28;113940;-62
2022/03/12 08:22:41;;;;;;;10.02;5.18;;;;;;;13.90;40.08;101588.78;4952236;28;124040;-61
2022/03/12 08:25:11;;;;;;;7.82;4.85;;;;;;;13.96;40.28;101593.84;4951958;28;123613;-61
2022/03/12 08:27:39;;;;;;;10.68;5.55;;;;;;;14.01;40.16;101602.44;4951862;28;115463;-61
2022/03/12 08:30:08;;;;;;;9.15;5.30;;;;;;;14.06;40.23;101605.78;4954431;28;114101;-62
2022/03/12 08:32:36;;;;;;;9.98;5.55;;;;;;;14.11;40.16;101598.44;4951015;28;124515;-61
2022/03/12 08:35:05;;;;;;;9.15;5.32;;;;;;;14.16;40.42;101601.72;4952710;28;123126;-61
2022/03/12 08:37:33;;;;;;;9.02;5.18;;;;;;;14.23;40.45;101601.44;4951663;28;114204;-61
2022/03/12 08:40:06;;;;;;;9.13;5.22;;;;;;;14.29;40.64;101606.47;4952880;28;113929;-62
2022/03/12 08:42:34;;;;;;;7.95;5.07;;;;;;;14.37;40.56;101609.63;4953428;28;124952;-63
2022/03/12 08:45:03;;;;;;;8.80;5.20;;;;;;;14.42;40.56;101623.59;4951069;28;123990;-63
2022/03/12 08:47:30;;;;;;;8.90;5.00;;;;;;;14.48;40.88;101628.63;4951416;28;114591;-63
2022/03/12 08:49:58;;;;;;;9.18;4.88;;;;;;;14.54;40.81;101628.34;4952224;28;113895;-62
2022/03/12 08:52:25;;;;;;;7.75;4.50;;;;;;;14.62;40.94;101625.31;4952136;28;124522;-62
2022/03/12 08:54:52;;;;;;;6.50;4.78;;;;;;;14.72;40.95;101623.06;4951139;28;123706;-61
2022/03/12 08:57:20;;;;;;;7.03;4.57;;;;;;;14.82;41.00;101618.97;4968528;28;115532;-61
2022/03/12 08:59:47;;;;;;;6.43;4.45;;;;;;;14.94;41.28;101626.38;4953624;28;115435;-63
2022/03/12 09:02:14;;;;;;;9.13;4.78;;;;;;;15.07;41.33;101625.72;4951140;28;124649;-62
2022/03/12 09:04:42;;;;;;;6.90;4.55;;;;;;;15.20;41.23;101621.50;4965879;28;123867;-62
2022/03/12 09:07:09;;;;;;;7.45;4.20;;;;;;;15.31;41.28;101616.47;4950752;28;114609;-62
2022/03/12 09:09:37;;;;;;;6.65;4.00;;;;;;;15.42;41.18;101620.38;4953746;28;114160;-62
2022/03/12 09:12:06;;;;;;;6.63;3.67;;;;;;;15.49;41.31;101614.63;4950342;28;124206;-63
2022/03/12 09:14:35;;;;;;;7.47;3.75;;;;;;;15.56;41.21;101617.84;4951344;28;123950;-63
2022/03/12 09:17:04;;;;;;;6.82;4.07;;;;;;;15.61;41.25;101615.75;4951064;28;114136;-62
2022/03/12 09:19:33;;;;;;;7.22;3.90;;;;;;;15.69;41.23;101613.56;4951275;28;113963;-63
2022/03/12 09:22:02;;;;;;;7.85;3.88;;;;;;;15.76;41.12;101617.66;4951702;28;124727;-63
2022/03/12 09:24:30;;;;;;;5.45;3.75;;;;;;;15.83;41.17;101614.63;4953306;28;123719;-63
2022/03/12 09:26:57;;;;;;;6.00;3.80;;;;;;;15.91;41.07;101617.75;4951081;28;115051;-63
2022/03/12 09:29:24;;;;;;;5.88;3.75;;;;;;;15.99;41.20;101626.19;4950963;28;113678;-63
2022/03/12 09:31:52;;;;;;;5.78;3.47;;;;;;;16.07;41.01;101613.28;4949981;28;124188;-63
2022/03/12 09:34:20;;;;;;;6.75;3.80;;;;;;;16.17;41.05;101618.13;4953405;28;124327;-63
2022/03/12 09:36:48;;;;;;;6.75;3.80;;;;;;;16.24;40.88;101624.84;4951095;28;114977;-63
2022/03/12 09:39:15;;;;;;;5.97;3.70;;;;;;;16.32;40.86;101628.78;4950916;28;114869;-63
2022/03/12 09:41:43;;;;;;;6.47;3.70;;;;;;;16.40;40.93;101625.69;4951072;28;124378;-63
2022/03/12 09:44:10;;;;;;;5.60;3.50;;;;;;;16.46;40.83;101629.81;4952988;28;123774;-63
2022/03/12 09:46:37;;;;;;;6.25;3.28;;;;;;;16.50;40.61;101632.25;4951779;28;115054;-63
2022/03/12 09:49:05;;;;;;;7.32;3.22;;;;;;;16.54;40.55;101623.09;4950779;28;114724;-63
2022/03/12 09:51:33;;;;;;;6.22;3.10;;;;;;;16.60;40.70;101629.03;4952151;28;123921;-63
2022/03/12 09:54:00;;;;;;;7.65;3.35;;;;;;;16.68;40.71;101624.09;4952993;28;124364;-63
2022/03/12 09:56:27;;;;;;;7.68;3.00;;;;;;;16.73;40.41;101627.38;4951120;28;115156;-64
2022/03/12 09:58:55;;;;;;;5.20;2.50;;;;;;;16.80;40.41;101623.38;4950574;28;114357;-63
2022/03/12 10:01:22;;;;;;;7.93;3.00;;;;;;;16.86;40.30;101623.06;4951533;28;124191;-64
2022/03/12 10:03:49;;;;;;;5.85;3.10;;;;;;;16.93;40.17;101624.41;4967587;28;123724;-63
2022/03/12 10:06:17;;;;;;;5.53;2.63;;;;;;;17.01;40.24;101625.75;4953118;28;114500;-64
2022/03/12 10:08:45;;;;;;;5.80;3.20;;;;;;;17.09;40.29;101618.16;4950702;28;114187;-63
2022/03/12 10:11:13;;;;;;;6.28;3.00;;;;;;;17.19;40.23;101619.28;4950648;28;123457;-63
2022/03/12 10:13:41;;;;;;;6.22;3.08;;;;;;;17.27;40.17;101622.41;4952236;28;125018;-63
2022/03/12 10:16:10;;;;;;;5.68;3.03;;;;;;;17.37;40.03;101643.25;4952192;28;114967;-63
2022/03/12 10:18:39;;;;;;;6.38;3.08;;;;;;;17.43;39.85;101626.81;4951126;28;113314;-63
2022/03/12 10:21:07;;;;;;;5.93;2.80;;;;;;;17.46;39.76;101626.59;4964337;28;123963;-63
2022/03/12 10:23:34;;;;;;;6.85;2.90;;;;;;;17.48;39.59;101630.94;4951546;28;124272;-63
2022/03/12 10:26:02;;;;;;;7.40;3.05;;;;;;;17.52;39.47;101632.44;4967944;28;113315;-63
2022/03/12 10:28:34;;;;;;;6.47;2.60;;;;;;;17.56;39.32;101633.13;4952065;28;113952;-64
2022/03/12 10:31:05;;;;;;;6.47;3.00;;;;;;;17.54;39.16;101635.03;4964195;28;124685;-63
2022/03/12 10:33:33;;;;;;;5.93;2.60;;;;;;;17.55;39.26;101635.88;4950089;28;124273;-63
2022/03/12 10:36:17;;;;;;;6.15;2.40;;;;;;;17.54;39.17;101639.50;4952737;28;115547;-63
2022/03/12 10:38:47;;;;;;;4.88;2.42;;;;;;;17.57;39.19;101642.00;4967902;28;114531;-63
2022/03/12 10:41:15;;;;;;;5.80;2.92;;;;;;;17.58;39.08;101633.03;4950883;28;125442;-63
2022/03/12 10:43:45;;;;;;;8.15;2.90;;;;;;;17.57;39.12;101640.19;4966723;28;124041;-64
2022/03/12 10:46:28;;;;;;;7.57;3.03;;;;;;;17.57;39.19;101634.84;4950321;28;115145;-64
2022/03/12 10:48:57;;;;;;;5.75;2.95;;;;;;;17.59;39.12;101640.94;4949815;28;114250;-63
2022/03/12 10:51:31;;;;;;;7.75;3.30;;;;;;;17.56;39.06;101643.84;4950896;28;125126;-64
2022/03/12 10:54:15;;;;;;;6.90;3.50;;;;;;;17.53;39.31;101644.00;4967941;28;123711;-64
2022/03/12 10:56:48;;;;;;;6.15;3.05;;;;;;;17.52;39.28;101639.63;4949671;28;114668;-63
2022/03/12 10:59:19;;;;;;;6.13;3.08;;;;;;;17.54;39.32;101636.84;4950759;28;114352;-64
2022/03/12 11:01:56;;;;;;;10.18;3.80;;;;;;;17.55;39.28;101642.09;4948271;28;124029;-64
2022/03/12 11:04:26;;;;;;;8.98;3.83;;;;;;;17.55;39.21;101639.44;4952216;28;124684;-63
2022/03/12 11:06:57;;;;;;;6.93;3.60;;;;;;;17.54;39.54;101645.75;4952506;28;114630;-64
2022/03/12 11:09:37;;;;;;;7.63;3.92;;;;;;;17.55;39.28;101657.31;4950592;28;114289;-63
2022/03/12 11:12:35;;;;;;;6.75;3.35;;;;;;;17.51;39.36;101646.78;4950253;28;123954;-64
2022/03/12 11:15:06;;;;;;;6.18;3.38;;;;;;;17.49;39.49;101647.84;4951527;28;123566;-64
2022/03/12 11:17:51;;;;;;;6.25;3.42;;;;;;;17.50;39.45;101641.53;4949528;28;114011;-64
2022/03/12 11:20:22;;;;;;;5.07;3.15;;;;;;;17.51;39.50;101645.94;4967352;28;112932;-63
2022/03/12 11:23:10;;;;;;;6.20;3.53;;;;;;;17.56;39.60;101634.94;4949846;28;124080;-64